Earlston, United Kingdom
Current Conditions -  °F | °C
As of 7:20 AM on Saturday 25 Oct 2014 (Local Time) from EGPH Reporting Station
Few Clouds Few Clouds  
Wind Chill: 50°   Ceiling: Unl
Heat Index: 50°   Visibility: 6mi
Dew Point: 43°   Wind: 15mph
Humidity: 76%   Direction: 220°SW
Pressure: 29.68"   Gusts: NA
Location:  55.64°N, 2.67°W
Report Text: EGPH 250620Z 22013KT 9999 FEW037 10/06 Q1005
Loading
Personal Weather Stations






























Interactive Weather Map
Tropical Storm Tracking
New forecast layout! Learn more

10-Day Weather Forecast

Advertisements
Track Severe Weather on mobile